Time,TemperatureF,DewpointF,PressureIn,WindDirection,WindDirectionDegrees,WindSpeedMPH,WindSpeedGustMPH,Humidity,HourlyPrecipIn,Conditions,Clouds,dailyrainin,SolarRadiationWatts/m^2,SoftwareType,DateUTC
2013-05-10 00:00:00,57.8,55.0,29.92,SW,225,0.0,-999.0,89,-99.99,,,0.94,0,weatherlink.com 1.10,2013-05-10 04:00:00,
2013-05-10 00:15:00,57.8,55.0,29.93,SW,225,0.0,-999.0,89,-99.99,,,0.00,0,weatherlink.com 1.10,2013-05-10 04:15:00,
2013-05-10 00:30:00,58.1,55.0,29.92,SW,225,0.0,-999.0,89,-99.99,,,0.00,0,weatherlink.com 1.10,2013-05-10 04:30:00,
2013-05-10 00:45:00,58.5,55.0,29.92,SW,225,0.0,-999.0,88,-99.99,,,0.00,0,weatherlink.com 1.10,2013-05-10 04:45:00,
2013-05-10 01:00:00,58.9,55.0,29.92,SW,225,0.0,-999.0,87,-99.99,,,0.00,0,weatherlink.com 1.10,2013-05-10 05:00:00,
2013-05-10 01:15:00,58.7,55.0,29.92,SW,225,0.0,-999.0,87,-99.99,,,0.00,0,weatherlink.com 1.10,2013-05-10 05:15:00,
2013-05-10 01:30:00,58.3,55.0,29.92,SW,225,0.0,-999.0,88,-99.99,,,0.00,0,weatherlink.com 1.10,2013-05-10 05:30:00,
2013-05-10 01:45:00,58.3,55.0,29.92,SW,225,0.0,-999.0,89,-99.99,,,0.00,0,weatherlink.com 1.10,2013-05-10 05:45:00,
2013-05-10 02:00:00,58.6,55.0,29.92,SW,225,2.0,-999.0,88,-99.99,,,0.00,0,weatherlink.com 1.10,2013-05-10 06:00:00,
2013-05-10 02:14:00,58.8,55.0,29.92,SW,225,0.0,-999.0,88,-99.99,,,0.00,0,weatherlink.com 1.10,2013-05-10 06:14:00,
2013-05-10 02:29:00,58.6,55.0,29.92,SW,225,0.0,-999.0,88,-99.99,,,0.00,0,weatherlink.com 1.10,2013-05-10 06:29:00,
2013-05-10 02:44:00,58.0,55.0,29.92,SW,225,0.0,-999.0,89,-99.99,,,0.00,0,weatherlink.com 1.10,2013-05-10 06:44:00,
2013-05-10 02:59:00,57.1,54.0,29.93,SW,225,0.0,-999.0,89,-99.99,,,0.00,0,weatherlink.com 1.10,2013-05-10 06:59:00,
2013-05-10 03:14:00,56.3,54.0,29.93,SW,225,0.0,-999.0,90,-99.99,,,0.00,0,weatherlink.com 1.10,2013-05-10 07:14:00,
2013-05-10 03:29:00,55.6,53.0,29.93,SW,225,0.0,-999.0,91,-99.99,,,0.00,0,weatherlink.com 1.10,2013-05-10 07:29:00,
2013-05-10 03:44:00,55.0,53.0,29.93,SW,225,0.0,-999.0,91,-99.99,,,0.00,0,weatherlink.com 1.10,2013-05-10 07:44:00,
2013-05-10 03:59:00,54.5,52.0,29.93,SW,225,0.0,-999.0,92,-99.99,,,0.00,0,weatherlink.com 1.10,2013-05-10 07:59:00,
2013-05-10 04:14:00,54.1,52.0,29.93,SW,225,0.0,-999.0,93,-99.99,,,0.00,0,weatherlink.com 1.10,2013-05-10 08:14:00,
2013-05-10 04:29:00,54.1,53.0,29.94,SW,225,0.0,-999.0,94,-99.99,,,0.00,0,weatherlink.com 1.10,2013-05-10 08:29:00,
2013-05-10 04:44:00,54.1,53.0,29.94,SW,225,0.0,-999.0,95,-99.99,,,0.00,0,weatherlink.com 1.10,2013-05-10 08:44:00,
2013-05-10 04:59:00,54.3,53.0,29.94,SW,225,0.0,-999.0,95,-99.99,,,0.00,0,weatherlink.com 1.10,2013-05-10 08:59:00,
2013-05-10 05:14:00,54.0,53.0,29.95,SW,225,0.0,-999.0,95,-99.99,,,0.00,0,weatherlink.com 1.10,2013-05-10 09:14:00,
2013-05-10 05:29:00,53.7,52.0,29.95,SW,225,0.0,-999.0,95,-99.99,,,0.00,0,weatherlink.com 1.10,2013-05-10 09:29:00,
2013-05-10 05:44:00,53.9,53.0,29.95,SW,225,0.0,-999.0,96,-99.99,,,0.00,0,weatherlink.com 1.10,2013-05-10 09:44:00,
2013-05-10 06:00:00,53.8,53.0,29.96,SW,225,0.0,-999.0,96,-99.99,,,0.00,9,weatherlink.com 1.10,2013-05-10 10:00:00,
2013-05-10 06:15:00,53.7,53.0,29.97,SW,227,0.0,-999.0,96,-99.99,,,0.00,18,weatherlink.com 1.10,2013-05-10 10:15:00,
2013-05-10 06:30:00,54.1,53.0,29.97,SW,236,0.0,-999.0,96,-99.99,,,0.00,23,weatherlink.com 1.10,2013-05-10 10:30:00,
2013-05-10 06:45:00,55.1,54.0,29.97,SW,236,0.0,-999.0,97,-99.99,,,0.00,28,weatherlink.com 1.10,2013-05-10 10:45:00,
2013-05-10 07:00:00,56.1,55.0,29.97,SW,236,0.0,-999.0,97,-99.99,,,0.00,127,weatherlink.com 1.10,2013-05-10 11:00:00,
2013-05-10 07:15:00,57.6,57.0,29.98,SW,236,0.0,-999.0,97,-99.99,,,0.00,178,weatherlink.com 1.10,2013-05-10 11:15:00,
2013-05-10 07:30:00,59.1,57.0,29.98,WNW,295,3.0,-999.0,93,-99.99,,,0.00,223,weatherlink.com 1.10,2013-05-10 11:30:00,
2013-05-10 07:45:00,61.0,58.0,29.97,NW,306,4.0,-999.0,88,-99.99,,,0.00,274,weatherlink.com 1.10,2013-05-10 11:45:00,
2013-05-10 08:00:00,62.8,58.0,29.98,NW,314,0.0,-999.0,84,-99.99,,,0.00,323,weatherlink.com 1.10,2013-05-10 12:00:00,
2013-05-10 08:15:00,64.7,58.0,29.97,NW,314,1.0,-999.0,80,-99.99,,,0.00,371,weatherlink.com 1.10,2013-05-10 12:15:00,
2013-05-10 08:30:00,66.0,59.0,29.97,NW,314,0.0,-999.0,78,-99.99,,,0.00,424,weatherlink.com 1.10,2013-05-10 12:30:00,
2013-05-10 08:45:00,67.1,59.0,29.97,NW,314,0.0,-999.0,75,-99.99,,,0.00,471,weatherlink.com 1.10,2013-05-10 12:45:00,
2013-05-10 09:00:00,67.7,59.0,29.97,NW,314,0.0,-999.0,73,-99.99,,,0.00,459,weatherlink.com 1.10,2013-05-10 13:00:00,
2013-05-10 09:15:00,69.0,59.0,29.97,NW,314,3.0,-999.0,71,-99.99,,,0.00,548,weatherlink.com 1.10,2013-05-10 13:15:00,
2013-05-10 09:30:00,70.1,59.0,29.97,NW,306,0.0,-999.0,68,-99.99,,,0.00,615,weatherlink.com 1.10,2013-05-10 13:30:00,
2013-05-10 09:45:00,71.5,59.0,29.97,NW,306,0.0,-999.0,66,-99.99,,,0.00,635,weatherlink.com 1.10,2013-05-10 13:45:00,
2013-05-10 10:01:00,72.6,60.0,29.97,NW,307,0.0,-999.0,64,-99.99,,,0.00,687,weatherlink.com 1.10,2013-05-10 14:01:00,
2013-05-10 10:16:00,73.2,59.0,29.97,WNW,292,0.0,-999.0,62,-99.99,,,0.00,721,weatherlink.com 1.10,2013-05-10 14:16:00,
2013-05-10 10:31:00,73.7,58.0,29.97,WSW,240,1.0,-999.0,59,-99.99,,,0.00,763,weatherlink.com 1.10,2013-05-10 14:31:00,
2013-05-10 10:46:00,73.9,58.0,29.97,West,269,0.0,-999.0,58,-99.99,,,0.00,786,weatherlink.com 1.10,2013-05-10 14:46:00,
2013-05-10 11:01:00,75.2,58.0,29.96,SSE,155,2.0,-999.0,55,-99.99,,,0.00,821,weatherlink.com 1.10,2013-05-10 15:01:00,
2013-05-10 11:31:00,75.7,58.0,29.96,SSW,209,0.0,-999.0,55,-99.99,,,0.00,772,weatherlink.com 1.10,2013-05-10 15:31:00,
2013-05-10 11:46:00,76.8,59.0,29.95,SW,228,0.0,-999.0,54,-99.99,,,0.00,870,weatherlink.com 1.10,2013-05-10 15:46:00,
2013-05-10 12:01:00,77.3,59.0,29.95,West,265,2.0,-999.0,54,-99.99,,,0.00,951,weatherlink.com 1.10,2013-05-10 16:01:00,
2013-05-10 12:16:00,78.1,58.0,29.94,SW,223,3.0,-999.0,51,-99.99,,,0.00,951,weatherlink.com 1.10,2013-05-10 16:16:00,
2013-05-10 12:31:00,77.0,57.0,29.95,WNW,293,1.0,-999.0,51,-99.99,,,0.00,779,weatherlink.com 1.10,2013-05-10 16:31:00,
2013-05-10 12:46:00,77.5,57.0,29.94,NW,312,1.0,-999.0,50,-99.99,,,0.00,443,weatherlink.com 1.10,2013-05-10 16:46:00,
2013-05-10 13:01:00,77.3,58.0,29.94,NW,313,2.0,-999.0,51,-99.99,,,0.00,870,weatherlink.com 1.10,2013-05-10 17:01:00,
2013-05-10 13:16:00,77.6,58.0,29.93,SW,229,2.0,-999.0,52,-99.99,,,0.00,497,weatherlink.com 1.10,2013-05-10 17:16:00,
2013-05-10 13:31:00,78.7,59.0,29.93,SW,222,2.0,-999.0,51,-99.99,,,0.00,585,weatherlink.com 1.10,2013-05-10 17:31:00,
2013-05-10 13:46:00,79.0,59.0,29.93,NNW,333,5.0,-999.0,50,-99.99,,,0.00,919,weatherlink.com 1.10,2013-05-10 17:46:00,
2013-05-10 14:01:00,79.3,60.0,29.93,WSW,244,4.0,-999.0,51,-99.99,,,0.00,691,weatherlink.com 1.10,2013-05-10 18:01:00,
2013-05-10 14:16:00,80.3,58.0,29.92,NW,309,4.0,-999.0,46,-99.99,,,0.00,889,weatherlink.com 1.10,2013-05-10 18:16:00,
2013-05-10 14:31:00,80.7,58.0,29.92,WSW,238,1.0,-999.0,46,-99.99,,,0.00,663,weatherlink.com 1.10,2013-05-10 18:31:00,
2013-05-10 14:46:00,81.5,59.0,29.92,SSW,211,2.0,-999.0,46,-99.99,,,0.00,689,weatherlink.com 1.10,2013-05-10 18:46:00,
2013-05-10 15:01:00,81.5,59.0,29.92,SW,217,0.0,-999.0,46,-99.99,,,0.00,554,weatherlink.com 1.10,2013-05-10 19:01:00,
2013-05-10 15:16:00,81.1,56.0,29.91,South,173,0.0,-999.0,42,-99.99,,,0.00,534,weatherlink.com 1.10,2013-05-10 19:16:00,
2013-05-10 15:31:00,81.6,56.0,29.90,NW,304,2.0,-999.0,42,-99.99,,,0.00,475,weatherlink.com 1.10,2013-05-10 19:31:00,
2013-05-10 15:46:00,80.3,60.0,29.90,NE,51,1.0,-999.0,50,-99.99,,,0.00,550,weatherlink.com 1.10,2013-05-10 19:46:00,
2013-05-10 16:02:00,79.3,60.0,29.90,East,101,0.0,-999.0,52,-99.99,,,0.00,489,weatherlink.com 1.10,2013-05-10 20:02:00,
2013-05-10 16:17:00,77.7,61.0,29.90,ESE,113,0.0,-999.0,56,-99.99,,,0.00,329,weatherlink.com 1.10,2013-05-10 20:17:00,
2013-05-10 16:32:00,77.9,61.0,29.90,SE,128,2.0,-999.0,57,-99.99,,,0.00,376,weatherlink.com 1.10,2013-05-10 20:32:00,
2013-05-10 16:47:00,76.6,61.0,29.90,ESE,123,6.0,-999.0,58,-99.99,,,0.00,272,weatherlink.com 1.10,2013-05-10 20:47:00,
2013-05-10 17:02:00,75.6,60.0,29.90,ESE,117,4.0,-999.0,59,-99.99,,,0.00,436,weatherlink.com 1.10,2013-05-10 21:02:00,
2013-05-10 17:17:00,76.2,61.0,29.90,ESE,114,4.0,-999.0,59,-99.99,,,0.00,341,weatherlink.com 1.10,2013-05-10 21:17:00,
2013-05-10 17:32:00,76.6,61.0,29.90,ESE,113,2.0,-999.0,59,-99.99,,,0.00,244,weatherlink.com 1.10,2013-05-10 21:32:00,
2013-05-10 17:47:00,76.5,61.0,29.89,SSE,150,0.0,-999.0,59,-99.99,,,0.00,172,weatherlink.com 1.10,2013-05-10 21:47:00,
2013-05-10 18:02:00,75.8,61.0,29.89,ESE,103,4.0,-999.0,60,-99.99,,,0.00,113,weatherlink.com 1.10,2013-05-10 22:02:00,
2013-05-10 18:17:00,75.5,61.0,29.89,SSE,167,4.0,-999.0,61,-99.99,,,0.00,81,weatherlink.com 1.10,2013-05-10 22:17:00,
2013-05-10 18:32:00,74.9,60.0,29.88,SE,134,1.0,-999.0,61,-99.99,,,0.00,84,weatherlink.com 1.10,2013-05-10 22:32:00,
2013-05-10 18:47:00,74.5,60.0,29.87,SE,133,0.0,-999.0,61,-99.99,,,0.00,69,weatherlink.com 1.10,2013-05-10 22:47:00,
2013-05-10 19:02:00,74.0,60.0,29.88,SSE,147,1.0,-999.0,62,-99.99,,,0.00,49,weatherlink.com 1.10,2013-05-10 23:02:00,
2013-05-10 19:17:00,73.4,60.0,29.88,SE,140,1.0,-999.0,63,-99.99,,,0.00,42,weatherlink.com 1.10,2013-05-10 23:17:00,
2013-05-10 19:32:00,72.6,60.0,29.88,ESE,121,4.0,-999.0,65,-99.99,,,0.00,23,weatherlink.com 1.10,2013-05-10 23:32:00,
2013-05-10 19:47:00,71.8,60.0,29.88,South,172,0.0,-999.0,67,-99.99,,,0.00,9,weatherlink.com 1.10,2013-05-10 23:47:00,
2013-05-10 20:17:00,70.4,60.0,29.87,SSE,149,0.0,-999.0,70,-99.99,,,0.00,0,weatherlink.com 1.10,2013-05-11 00:17:00,
2013-05-10 20:32:00,69.6,60.0,29.87,SE,138,0.0,-999.0,72,-99.99,,,0.00,0,weatherlink.com 1.10,2013-05-11 00:32:00,
2013-05-10 20:47:00,68.9,60.0,29.88,SE,138,0.0,-999.0,74,-99.99,,,0.00,0,weatherlink.com 1.10,2013-05-11 00:47:00,
2013-05-10 21:02:00,68.5,60.0,29.89,SE,142,2.0,-999.0,74,-99.99,,,0.00,0,weatherlink.com 1.10,2013-05-11 01:02:00,
2013-05-10 21:17:00,68.3,59.0,29.89,South,169,2.0,-999.0,73,-99.99,,,0.00,0,weatherlink.com 1.10,2013-05-11 01:17:00,
2013-05-10 21:32:00,68.6,59.0,29.89,SSE,155,1.0,-999.0,72,-99.99,,,0.00,0,weatherlink.com 1.10,2013-05-11 01:32:00,
2013-05-10 21:47:00,68.7,59.0,29.89,SSE,158,1.0,-999.0,70,-99.99,,,0.00,0,weatherlink.com 1.10,2013-05-11 01:47:00,
2013-05-10 22:02:00,68.9,58.0,29.89,SE,135,0.0,-999.0,68,-99.99,,,0.00,0,weatherlink.com 1.10,2013-05-11 02:02:00,
2013-05-10 22:17:00,68.8,58.0,29.88,SSE,158,0.0,-999.0,68,-99.99,,,0.00,0,weatherlink.com 1.10,2013-05-11 02:17:00,
2013-05-10 22:32:00,68.4,58.0,29.87,SSE,166,0.0,-999.0,69,-99.99,,,0.00,0,weatherlink.com 1.10,2013-05-11 02:32:00,
2013-05-10 22:47:00,68.0,58.0,29.86,SSE,167,0.0,-999.0,70,-99.99,,,0.00,0,weatherlink.com 1.10,2013-05-11 02:47:00,
2013-05-10 23:02:00,67.7,57.0,29.86,South,185,0.0,-999.0,69,-99.99,,,0.00,0,weatherlink.com 1.10,2013-05-11 03:02:00,
2013-05-10 23:17:00,67.4,57.0,29.86,SE,144,0.0,-999.0,70,-99.99,,,0.00,0,weatherlink.com 1.10,2013-05-11 03:17:00,
2013-05-10 23:32:00,68.0,57.0,29.88,WSW,246,0.0,-999.0,68,-99.99,,,0.00,0,weatherlink.com 1.10,2013-05-11 03:32:00,
2013-05-10 23:47:00,68.2,57.0,29.88,SSW,213,0.0,-999.0,68,-99.99,,,0.00,0,weatherlink.com 1.10,2013-05-11 03:47:00,